createdAt,value
2022-09-12T00:00:31.940Z,62.91
2022-09-12T00:05:54.430Z,61.01
2022-09-12T00:10:56.843Z,60.42
2022-09-12T00:15:59.199Z,59.54
2022-09-12T00:21:02.575Z,61.87
2022-09-12T00:26:06.288Z,65.47
2022-09-12T00:31:10.180Z,62.24
2022-09-12T00:37:04.128Z,61.16
2022-09-12T00:42:06.497Z,60.56
2022-09-12T00:47:11.731Z,60.34
2022-09-12T00:52:18.620Z,59.98
2022-09-12T00:57:23.676Z,59.57
2022-09-12T01:02:26.494Z,65.86
2022-09-12T01:07:29.142Z,63.77
2022-09-12T01:12:33.553Z,61.45
2022-09-12T01:17:38.833Z,60.75
2022-09-12T01:22:54.331Z,59.96
2022-09-12T01:27:56.588Z,59.09
2022-09-12T01:33:01.843Z,63.00
2022-09-12T01:38:10.334Z,64.84
2022-09-12T01:43:21.244Z,61.39
2022-09-12T01:48:26.440Z,59.98
2022-09-12T01:53:34.070Z,60.28
2022-09-12T01:58:40.360Z,65.75
2022-09-12T02:03:45.648Z,62.22
2022-09-12T02:08:52.280Z,60.46
2022-09-12T02:13:58.941Z,59.67
2022-09-12T02:19:07.815Z,59.09
2022-09-12T02:24:13.234Z,64.64
2022-09-12T02:29:15.733Z,63.55
2022-09-12T02:34:20.970Z,61.17
2022-09-12T02:39:23.389Z,59.52
2022-09-12T02:44:27.611Z,59.80
2022-09-12T02:49:30.032Z,66.73
2022-09-12T02:54:32.473Z,63.55
2022-09-12T02:59:34.774Z,60.31
2022-09-12T03:04:38.065Z,58.35
2022-09-12T03:09:44.212Z,64.70
2022-09-12T03:14:46.640Z,62.53
2022-09-12T03:19:57.259Z,60.40
2022-09-12T03:25:05.614Z,58.79
2022-09-12T03:30:08.248Z,64.06
2022-09-12T03:35:10.816Z,61.80
2022-09-12T03:40:13.282Z,59.60
2022-09-12T03:45:16.515Z,59.33
2022-09-12T03:50:18.891Z,65.87
2022-09-12T03:55:21.202Z,62.28
2022-09-12T04:00:23.732Z,59.18
2022-09-12T04:05:26.552Z,59.17
2022-09-12T04:10:29.090Z,66.15
2022-09-12T04:15:31.406Z,61.99
2022-09-12T04:20:33.724Z,58.75
2022-09-12T04:25:36.103Z,61.57
2022-09-12T04:30:38.682Z,66.20
2022-09-12T04:35:41.591Z,62.21
2022-09-12T04:47:23.040Z,61.29
2022-09-12T04:52:25.361Z,66.06
2022-09-12T04:57:27.875Z,60.73
2022-09-12T05:02:30.349Z,58.88
2022-09-12T05:07:32.803Z,65.12
2022-09-12T05:12:36.601Z,63.40
2022-09-12T05:17:38.966Z,60.12
2022-09-12T05:22:41.312Z,58.90
2022-09-12T05:27:46.417Z,64.45
2022-09-12T05:32:52.300Z,63.19
2022-09-12T05:37:55.741Z,59.96
2022-09-12T05:42:58.067Z,59.02
2022-09-12T05:48:00.478Z,64.34
2022-09-12T05:54:01.244Z,60.38
2022-09-12T05:59:04.710Z,60.53
2022-09-12T06:04:07.450Z,64.21
2022-09-12T06:09:10.455Z,59.95
2022-09-12T06:14:13.892Z,59.48
2022-09-12T06:19:17.413Z,64.57
2022-09-12T06:24:20.718Z,59.82
2022-09-12T06:29:23.029Z,59.36
2022-09-12T06:34:26.992Z,64.76
2022-09-12T06:39:29.422Z,59.08
2022-09-12T06:44:31.708Z,58.94
2022-09-12T06:49:34.174Z,63.33
2022-09-12T06:54:36.488Z,60.03
2022-09-12T06:59:38.840Z,57.24
2022-09-12T07:04:41.144Z,62.40
2022-09-12T07:09:44.510Z,59.51
2022-09-12T07:14:47.559Z,60.67
2022-09-12T07:19:49.855Z,60.85
2022-09-12T07:24:53.990Z,58.13
2022-09-12T07:29:56.292Z,62.28
2022-09-12T07:34:58.593Z,58.26
2022-09-12T07:40:01.229Z,62.49
2022-09-12T07:45:03.907Z,58.75
2022-09-12T07:50:06.854Z,58.14
2022-09-12T07:55:09.266Z,61.37
2022-09-12T08:00:11.802Z,58.28
2022-09-12T08:05:14.126Z,60.03
2022-09-12T08:10:16.432Z,60.60
2022-09-12T08:15:20.221Z,57.99
2022-09-12T08:20:25.344Z,60.75
2022-09-12T08:25:31.017Z,61.12
2022-09-12T08:30:33.523Z,55.52
2022-09-12T08:35:35.906Z,58.64
2022-09-12T08:40:41.178Z,61.78
2022-09-12T08:45:51.727Z,57.08
2022-09-12T08:50:54.156Z,60.12
2022-09-12T08:55:59.056Z,62.32
2022-09-12T09:01:04.588Z,57.06
2022-09-12T09:06:13.182Z,60.00
2022-09-12T09:11:17.504Z,62.90
2022-09-12T09:16:22.974Z,58.57
2022-09-12T09:21:28.652Z,57.48
2022-09-12T09:26:39.172Z,59.83
2022-09-12T09:31:42.330Z,60.33
2022-09-12T09:36:48.352Z,60.81
2022-09-12T09:41:50.832Z,60.10
2022-09-12T09:46:55.491Z,58.35
2022-09-12T09:52:00.568Z,58.34
2022-09-12T09:57:04.987Z,57.85
2022-09-12T10:02:10.742Z,57.11
2022-09-12T10:07:18.685Z,56.19
2022-09-12T10:12:26.137Z,55.76
2022-09-12T10:17:34.275Z,55.76
2022-09-12T10:22:38.465Z,56.49
2022-09-12T10:27:41.805Z,55.35
2022-09-12T10:32:46.445Z,55.48
2022-09-12T10:37:52.322Z,54.87
2022-09-12T10:42:56.263Z,55.12
2022-09-12T10:48:07.349Z,55.87
2022-09-12T10:53:13.397Z,56.15
2022-09-12T10:58:18.841Z,56.58
2022-09-12T11:03:24.711Z,56.56
2022-09-12T11:08:47.174Z,56.76
2022-09-12T11:13:55.589Z,56.52
2022-09-12T11:19:06.826Z,56.80
2022-09-12T11:24:12.117Z,57.14
2022-09-12T11:29:14.417Z,57.40
2022-09-12T11:34:20.104Z,56.98
2022-09-12T11:39:28.020Z,55.84
2022-09-12T11:44:33.317Z,56.07
2022-09-12T11:49:36.694Z,55.37
2022-09-12T11:54:42.329Z,55.54
2022-09-12T11:59:47.610Z,56.27
2022-09-12T12:04:52.952Z,56.97
2022-09-12T12:09:55.594Z,57.06
2022-09-12T12:14:58.993Z,56.72
2022-09-12T12:20:07.489Z,56.58
2022-09-12T12:25:12.119Z,56.16
2022-09-12T12:30:17.349Z,55.12
2022-09-12T12:35:23.435Z,56.01
2022-09-12T12:40:26.713Z,56.87
2022-09-12T12:45:29.228Z,57.34
2022-09-12T12:50:32.061Z,57.23
2022-09-12T12:55:37.735Z,56.68
2022-09-12T13:00:40.359Z,54.67
2022-09-12T13:05:46.552Z,53.80
2022-09-12T13:10:52.475Z,51.94
2022-09-12T13:15:54.948Z,52.43
2022-09-12T13:21:01.088Z,53.94
2022-09-12T13:26:04.999Z,55.41
2022-09-12T13:31:10.433Z,56.10
2022-09-12T13:36:15.700Z,55.89
2022-09-12T13:41:18.031Z,55.54
2022-09-12T13:46:30.386Z,53.91
2022-09-12T13:51:32.803Z,51.01
2022-09-12T13:56:46.404Z,51.01
2022-09-12T14:01:48.768Z,51.66
2022-09-12T14:06:52.029Z,52.00
2022-09-12T14:11:54.415Z,52.60
2022-09-12T14:16:57.778Z,53.21
2022-09-12T14:22:02.268Z,54.09
2022-09-12T14:27:04.801Z,54.88
2022-09-12T14:32:18.495Z,55.64
2022-09-12T14:37:20.872Z,56.35
2022-09-12T14:42:30.963Z,54.72
2022-09-12T14:47:38.704Z,51.56
2022-09-12T14:52:41.013Z,52.26
2022-09-12T14:57:44.450Z,53.35
2022-09-12T15:02:47.898Z,51.69
2022-09-12T15:07:50.221Z,49.36
2022-09-12T15:13:04.541Z,45.43
2022-09-12T15:18:07.387Z,43.47
2022-09-12T15:23:14.971Z,43.12
2022-09-12T15:28:19.899Z,41.06
2022-09-12T15:33:24.031Z,40.96
2022-09-12T15:38:26.942Z,41.38
2022-09-12T15:43:29.546Z,41.96
2022-09-12T15:48:32.014Z,40.31
2022-09-12T15:53:34.508Z,39.21
2022-09-12T15:58:46.027Z,38.13
2022-09-12T16:03:57.850Z,39.30
2022-09-12T16:09:01.024Z,40.71
2022-09-12T16:14:04.481Z,44.16
2022-09-12T16:19:07.227Z,48.70
2022-09-12T16:24:09.763Z,51.41
2022-09-12T16:29:12.782Z,54.94
2022-09-12T16:34:15.395Z,57.04
2022-09-12T16:39:17.717Z,59.55
2022-09-12T16:44:20.163Z,61.63
2022-09-12T16:49:22.464Z,62.74
2022-09-12T16:54:24.781Z,55.65
2022-09-12T16:59:27.073Z,58.18
2022-09-12T17:04:29.490Z,60.34
2022-09-12T17:09:31.840Z,64.96
2022-09-12T17:14:34.235Z,60.60
2022-09-12T17:19:36.565Z,56.14
2022-09-12T17:24:39.462Z,59.28
2022-09-12T17:29:41.848Z,63.00
2022-09-12T17:34:44.176Z,64.58
2022-09-12T17:39:46.547Z,57.64
2022-09-12T17:44:50.310Z,57.81
2022-09-12T17:49:58.629Z,59.92
2022-09-12T17:55:08.066Z,66.28
2022-09-12T18:00:10.795Z,63.85
2022-09-12T18:05:14.025Z,58.87
2022-09-12T18:10:16.363Z,57.33
2022-09-12T18:15:18.675Z,62.29
2022-09-12T18:20:21.031Z,65.66
2022-09-12T18:25:23.618Z,60.43
2022-09-12T18:30:25.930Z,57.46
2022-09-12T18:35:28.269Z,61.95
2022-09-12T18:40:30.584Z,66.40
2022-09-12T18:45:33.408Z,60.41
2022-09-12T18:50:35.760Z,57.32
2022-09-12T18:55:38.087Z,60.22
2022-09-12T19:00:41.260Z,66.24
2022-09-12T19:05:43.735Z,61.95
2022-09-12T19:10:53.707Z,57.90
2022-09-12T19:15:56.163Z,60.88
2022-09-12T19:20:58.557Z,65.63
2022-09-12T19:26:06.048Z,60.49
2022-09-12T19:31:09.944Z,57.40
2022-09-12T19:36:40.838Z,61.20
2022-09-12T19:41:36.263Z,67.22
2022-09-12T19:46:38.654Z,61.76
2022-09-12T19:51:41.473Z,58.05
2022-09-12T19:56:43.879Z,60.04
2022-09-12T20:01:46.691Z,66.94
2022-09-12T20:06:49.571Z,63.10
2022-09-12T20:11:51.900Z,60.05
2022-09-12T20:16:54.207Z,58.09
2022-09-12T20:21:56.538Z,64.49
2022-09-12T20:33:37.466Z,57.84
2022-09-12T20:38:40.101Z,60.48
2022-09-12T20:43:42.450Z,66.40
2022-09-12T20:55:11.996Z,58.60
2022-09-12T21:00:14.524Z,59.06
2022-09-12T21:05:17.334Z,65.07
2022-09-12T21:10:19.757Z,64.45
2022-09-12T21:15:22.394Z,60.74
2022-09-12T21:20:24.733Z,59.05
2022-09-12T21:32:06.008Z,67.28
2022-09-12T21:37:08.462Z,62.81
2022-09-12T21:42:10.810Z,60.84
2022-09-12T21:47:13.119Z,58.03
2022-09-12T21:52:15.439Z,59.87
2022-09-12T21:57:17.730Z,66.13
2022-09-12T22:02:20.182Z,62.21
2022-09-12T22:07:23.422Z,58.35
2022-09-12T22:12:28.698Z,59.24
2022-09-12T22:17:31.092Z,65.32
2022-09-12T22:22:37.876Z,64.65
2022-09-12T22:27:40.192Z,59.90
2022-09-12T22:32:42.668Z,58.26
2022-09-12T22:37:46.264Z,63.98
2022-09-12T22:42:50.907Z,65.70
2022-09-12T22:47:53.213Z,61.53
2022-09-12T22:52:55.684Z,58.16
2022-09-12T22:57:57.974Z,58.56
2022-09-12T23:03:01.507Z,62.98
2022-09-12T23:08:03.854Z,67.77
2022-09-12T23:13:06.824Z,62.52
2022-09-12T23:18:09.128Z,60.16
2022-09-12T23:23:11.495Z,58.06
2022-09-12T23:28:14.637Z,60.98
2022-09-12T23:33:17.097Z,67.08
2022-09-12T23:38:19.401Z,62.29
2022-09-12T23:43:21.740Z,58.27
2022-09-12T23:48:24.124Z,60.84
2022-09-12T23:53:26.679Z,67.21
2022-09-12T23:58:30.837Z,61.58
